sensor_id;sensor_type;location;lat;lon;timestamp;temperature;humidity
3001;DHT22;1510;51.072;6.678;2023-03-01T05:11:52;-5.00;99.90
3001;DHT22;1510;51.072;6.678;2023-03-01T05:22:16;-5.00;99.90
3001;DHT22;1510;51.072;6.678;2023-03-01T11:33:55;10.80;13.90
3001;DHT22;1510;51.072;6.678;2023-03-01T11:36:30;11.40;12.30
3001;DHT22;1510;51.072;6.678;2023-03-01T11:39:03;11.20;11.50
3001;DHT22;1510;51.072;6.678;2023-03-01T11:41:33;11.20;11.70
3001;DHT22;1510;51.072;6.678;2023-03-01T12:16:03;11.80;4.20
3001;DHT22;1510;51.072;6.678;2023-03-01T12:37:54;11.60;7.00
3001;DHT22;1510;51.072;6.678;2023-03-01T12:43:33;10.60;9.60
3001;DHT22;1510;51.072;6.678;2023-03-01T12:46:24;10.60;8.10
3001;DHT22;1510;51.072;6.678;2023-03-01T12:49:01;10.70;7.20
3001;DHT22;1510;51.072;6.678;2023-03-01T12:51:35;10.30;6.80
3001;DHT22;1510;51.072;6.678;2023-03-01T12:54:11;10.20;8.80
3001;DHT22;1510;51.072;6.678;2023-03-01T12:56:42;10.10;10.10
3001;DHT22;1510;51.072;6.678;2023-03-01T12:59:19;9.90;10.80
3001;DHT22;1510;51.072;6.678;2023-03-01T13:01:55;10.30;11.60
3001;DHT22;1510;51.072;6.678;2023-03-01T13:04:43;10.40;9.20
3001;DHT22;1510;51.072;6.678;2023-03-01T13:07:22;10.20;9.40
3001;DHT22;1510;51.072;6.678;2023-03-01T13:10:04;10.30;12.80
3001;DHT22;1510;51.072;6.678;2023-03-01T13:12:45;11.10;13.30
3001;DHT22;1510;51.072;6.678;2023-03-01T13:15:30;11.00;13.20
3001;DHT22;1510;51.072;6.678;2023-03-01T13:17:58;11.10;11.10
3001;DHT22;1510;51.072;6.678;2023-03-01T13:20:29;10.40;11.30
3001;DHT22;1510;51.072;6.678;2023-03-01T13:23:07;10.80;12.20
3001;DHT22;1510;51.072;6.678;2023-03-01T13:26:03;10.30;9.80
3001;DHT22;1510;51.072;6.678;2023-03-01T13:28:52;10.70;11.10
3001;DHT22;1510;51.072;6.678;2023-03-01T13:34:43;11.10;8.20
3001;DHT22;1510;51.072;6.678;2023-03-01T13:37:20;10.70;6.70
3001;DHT22;1510;51.072;6.678;2023-03-01T13:39:48;10.80;10.10
3001;DHT22;1510;51.072;6.678;2023-03-01T13:42:39;9.50;7.90
3001;DHT22;1510;51.072;6.678;2023-03-01T13:45:20;9.30;12.80
3001;DHT22;1510;51.072;6.678;2023-03-01T13:47:53;9.20;16.50
3001;DHT22;1510;51.072;6.678;2023-03-01T13:50:25;8.50;19.00
3001;DHT22;1510;51.072;6.678;2023-03-01T13:52:55;8.50;20.10
3001;DHT22;1510;51.072;6.678;2023-03-01T13:55:29;8.10;17.00
3001;DHT22;1510;51.072;6.678;2023-03-01T13:58:02;8.00;20.60
3001;DHT22;1510;51.072;6.678;2023-03-01T14:00:33;7.70;22.50
3001;DHT22;1510;51.072;6.678;2023-03-01T14:03:10;7.70;23.70
3001;DHT22;1510;51.072;6.678;2023-03-01T14:05:38;7.70;24.40
3001;DHT22;1510;51.072;6.678;2023-03-01T14:08:18;7.80;23.60
3001;DHT22;1510;51.072;6.678;2023-03-01T14:13:41;7.70;26.20
3001;DHT22;1510;51.072;6.678;2023-03-01T14:16:21;7.50;25.50
3001;DHT22;1510;51.072;6.678;2023-03-01T14:18:58;7.60;26.10
3001;DHT22;1510;51.072;6.678;2023-03-01T14:21:30;7.40;25.60
3001;DHT22;1510;51.072;6.678;2023-03-01T14:23:58;7.60;28.30
3001;DHT22;1510;51.072;6.678;2023-03-01T14:26:26;7.60;26.80
3001;DHT22;1510;51.072;6.678;2023-03-01T14:28:55;7.60;25.10
3001;DHT22;1510;51.072;6.678;2023-03-01T14:31:34;7.50;26.10
3001;DHT22;1510;51.072;6.678;2023-03-01T14:34:02;7.40;26.00
3001;DHT22;1510;51.072;6.678;2023-03-01T14:36:33;7.60;27.30
3001;DHT22;1510;51.072;6.678;2023-03-01T14:39:01;7.30;28.80
3001;DHT22;1510;51.072;6.678;2023-03-01T14:41:36;7.30;28.20
3001;DHT22;1510;51.072;6.678;2023-03-01T14:44:16;7.40;28.10
3001;DHT22;1510;51.072;6.678;2023-03-01T14:46:46;7.60;29.20
3001;DHT22;1510;51.072;6.678;2023-03-01T14:49:15;7.50;26.10
3001;DHT22;1510;51.072;6.678;2023-03-01T14:51:51;7.40;27.40
3001;DHT22;1510;51.072;6.678;2023-03-01T14:54:22;7.50;31.00
3001;DHT22;1510;51.072;6.678;2023-03-01T14:56:54;7.30;30.50
3001;DHT22;1510;51.072;6.678;2023-03-01T14:59:24;7.20;29.90
3001;DHT22;1510;51.072;6.678;2023-03-01T15:01:54;7.40;30.50
3001;DHT22;1510;51.072;6.678;2023-03-01T15:04:25;7.40;32.80
3001;DHT22;1510;51.072;6.678;2023-03-01T15:06:55;7.40;30.80
3001;DHT22;1510;51.072;6.678;2023-03-01T15:09:34;7.70;34.50
3001;DHT22;1510;51.072;6.678;2023-03-01T15:12:31;7.90;29.70
3001;DHT22;1510;51.072;6.678;2023-03-01T15:21:07;8.90;25.50
3001;DHT22;1510;51.072;6.678;2023-03-01T15:24:05;9.30;27.00
3001;DHT22;1510;51.072;6.678;2023-03-01T15:32:02;8.50;25.90
3001;DHT22;1510;51.072;6.678;2023-03-01T15:34:33;8.10;26.80
3001;DHT22;1510;51.072;6.678;2023-03-01T15:37:05;8.10;26.50
3001;DHT22;1510;51.072;6.678;2023-03-01T15:39:39;8.20;26.50
3001;DHT22;1510;51.072;6.678;2023-03-01T15:42:10;8.00;26.90
3001;DHT22;1510;51.072;6.678;2023-03-01T15:44:39;7.90;27.70
3001;DHT22;1510;51.072;6.678;2023-03-01T15:47:23;7.80;26.30
3001;DHT22;1510;51.072;6.678;2023-03-01T15:49:52;7.60;27.50
3001;DHT22;1510;51.072;6.678;2023-03-01T15:52:24;7.30;29.30
3001;DHT22;1510;51.072;6.678;2023-03-01T15:54:55;7.20;29.90
3001;DHT22;1510;51.072;6.678;2023-03-01T15:57:24;7.00;31.30
3001;DHT22;1510;51.072;6.678;2023-03-01T15:59:51;6.90;30.60
3001;DHT22;1510;51.072;6.678;2023-03-01T16:02:19;6.90;30.60
3001;DHT22;1510;51.072;6.678;2023-03-01T16:04:48;6.70;31.20
3001;DHT22;1510;51.072;6.678;2023-03-01T16:07:15;6.60;32.20
3001;DHT22;1510;51.072;6.678;2023-03-01T16:09:44;6.60;32.90
3001;DHT22;1510;51.072;6.678;2023-03-01T16:12:14;6.60;32.20
3001;DHT22;1510;51.072;6.678;2023-03-01T16:14:41;6.50;31.30
3001;DHT22;1510;51.072;6.678;2023-03-01T16:17:09;6.70;31.90
3001;DHT22;1510;51.072;6.678;2023-03-01T16:19:36;6.40;32.20
3001;DHT22;1510;51.072;6.678;2023-03-01T16:22:04;6.30;32.80
3001;DHT22;1510;51.072;6.678;2023-03-01T16:24:31;6.30;34.80
3001;DHT22;1510;51.072;6.678;2023-03-01T16:26:59;6.30;36.00
3001;DHT22;1510;51.072;6.678;2023-03-01T16:29:26;6.40;35.30
3001;DHT22;1510;51.072;6.678;2023-03-01T16:31:54;6.30;33.70
3001;DHT22;1510;51.072;6.678;2023-03-01T16:34:21;6.50;31.30
3001;DHT22;1510;51.072;6.678;2023-03-01T16:36:48;6.50;33.20
3001;DHT22;1510;51.072;6.678;2023-03-01T16:39:15;6.50;35.20
3001;DHT22;1510;51.072;6.678;2023-03-01T16:41:43;6.20;34.90
3001;DHT22;1510;51.072;6.678;2023-03-01T16:44:11;6.00;35.30
3001;DHT22;1510;51.072;6.678;2023-03-01T16:46:38;5.90;37.30
3001;DHT22;1510;51.072;6.678;2023-03-01T16:49:08;5.70;37.80
3001;DHT22;1510;51.072;6.678;2023-03-01T16:51:35;5.70;37.50
3001;DHT22;1510;51.072;6.678;2023-03-01T16:54:05;5.50;37.00
3001;DHT22;1510;51.072;6.678;2023-03-01T16:56:32;5.50;37.90
3001;DHT22;1510;51.072;6.678;2023-03-01T16:59:03;5.40;37.00
3001;DHT22;1510;51.072;6.678;2023-03-01T17:22:20;3.90;44.70
3001;DHT22;1510;51.072;6.678;2023-03-01T17:30:17;4.00;44.80
3001;DHT22;1510;51.072;6.678;2023-03-01T17:32:48;4.00;45.50
3001;DHT22;1510;51.072;6.678;2023-03-01T17:35:15;3.90;45.70
3001;DHT22;1510;51.072;6.678;2023-03-01T17:37:47;3.70;46.80
3001;DHT22;1510;51.072;6.678;2023-03-01T17:40:42;3.40;47.70
3001;DHT22;1510;51.072;6.678;2023-03-01T17:58:55;2.80;54.10
3001;DHT22;1510;51.072;6.678;2023-03-01T18:01:22;2.90;54.70
3001;DHT22;1510;51.072;6.678;2023-03-01T18:03:50;2.90;55.80
3001;DHT22;1510;51.072;6.678;2023-03-01T18:06:19;2.90;55.40
3001;DHT22;1510;51.072;6.678;2023-03-01T18:08:47;3.10;55.40
3001;DHT22;1510;51.072;6.678;2023-03-01T18:11:17;3.10;55.60
3001;DHT22;1510;51.072;6.678;2023-03-01T18:13:56;3.00;55.90
3001;DHT22;1510;51.072;6.678;2023-03-01T18:16:23;2.90;55.80
3001;DHT22;1510;51.072;6.678;2023-03-01T18:18:54;2.90;55.80
3001;DHT22;1510;51.072;6.678;2023-03-01T18:21:22;2.70;55.70
3001;DHT22;1510;51.072;6.678;2023-03-01T18:23:50;2.70;56.30
3001;DHT22;1510;51.072;6.678;2023-03-01T18:26:22;2.60;57.60
3001;DHT22;1510;51.072;6.678;2023-03-01T18:28:54;2.40;58.90
3001;DHT22;1510;51.072;6.678;2023-03-01T18:31:23;2.50;60.50
3001;DHT22;1510;51.072;6.678;2023-03-01T18:33:52;2.40;61.90
3001;DHT22;1510;51.072;6.678;2023-03-01T18:36:25;2.30;61.80
3001;DHT22;1510;51.072;6.678;2023-03-01T18:38:52;2.50;61.30
3001;DHT22;1510;51.072;6.678;2023-03-01T18:41:21;2.50;61.20
3001;DHT22;1510;51.072;6.678;2023-03-01T18:43:49;2.80;61.30
3001;DHT22;1510;51.072;6.678;2023-03-01T18:46:17;2.80;59.90
3001;DHT22;1510;51.072;6.678;2023-03-01T18:48:51;3.00;59.00
3001;DHT22;1510;51.072;6.678;2023-03-01T18:51:23;2.90;59.00
3001;DHT22;1510;51.072;6.678;2023-03-01T18:53:54;2.90;59.20
3001;DHT22;1510;51.072;6.678;2023-03-01T18:56:23;2.90;59.10
3001;DHT22;1510;51.072;6.678;2023-03-01T18:58:54;3.00;58.60
3001;DHT22;1510;51.072;6.678;2023-03-01T19:01:24;3.10;58.60
3001;DHT22;1510;51.072;6.678;2023-03-01T19:03:58;3.00;58.50
3001;DHT22;1510;51.072;6.678;2023-03-01T19:08:58;2.70;60.10
3001;DHT22;1510;51.072;6.678;2023-03-01T19:11:26;2.50;61.10
3001;DHT22;1510;51.072;6.678;2023-03-01T19:13:56;2.30;62.10
3001;DHT22;1510;51.072;6.678;2023-03-01T19:16:27;2.30;63.10
3001;DHT22;1510;51.072;6.678;2023-03-01T19:19:05;2.10;63.90
3001;DHT22;1510;51.072;6.678;2023-03-01T19:21:38;1.90;64.70
3001;DHT22;1510;51.072;6.678;2023-03-01T19:24:06;1.70;65.70
3001;DHT22;1510;51.072;6.678;2023-03-01T19:26:33;1.50;69.10
3001;DHT22;1510;51.072;6.678;2023-03-01T19:29:02;1.20;69.50
3001;DHT22;1510;51.072;6.678;2023-03-01T19:31:36;1.10;70.80
3001;DHT22;1510;51.072;6.678;2023-03-01T19:34:12;1.00;72.50
3001;DHT22;1510;51.072;6.678;2023-03-01T19:36:39;0.70;75.00
3001;DHT22;1510;51.072;6.678;2023-03-01T19:39:13;0.60;76.90
3001;DHT22;1510;51.072;6.678;2023-03-01T19:41:48;0.50;77.30
3001;DHT22;1510;51.072;6.678;2023-03-01T19:44:20;0.30;78.80
3001;DHT22;1510;51.072;6.678;2023-03-01T19:54:28;-0.20;84.20
3001;DHT22;1510;51.072;6.678;2023-03-01T19:56:55;-0.30;88.30
3001;DHT22;1510;51.072;6.678;2023-03-01T19:59:24;-0.40;89.80
3001;DHT22;1510;51.072;6.678;2023-03-01T20:01:56;-0.60;91.50
3001;DHT22;1510;51.072;6.678;2023-03-01T20:09:40;-0.70;97.20
3001;DHT22;1510;51.072;6.678;2023-03-01T20:12:08;-0.40;97.60
3001;DHT22;1510;51.072;6.678;2023-03-01T20:14:42;-0.60;99.90
3001;DHT22;1510;51.072;6.678;2023-03-01T20:17:14;-0.60;99.90
3001;DHT22;1510;51.072;6.678;2023-03-01T20:19:41;-0.50;99.90
3001;DHT22;1510;51.072;6.678;2023-03-01T20:22:15;-0.50;99.90
3001;DHT22;1510;51.072;6.678;2023-03-01T20:24:53;-0.80;99.90
3001;DHT22;1510;51.072;6.678;2023-03-01T20:27:24;-1.00;99.90
3001;DHT22;1510;51.072;6.678;2023-03-01T20:29:52;-1.20;99.90
3001;DHT22;1510;51.072;6.678;2023-03-01T20:32:21;-1.00;99.90
3001;DHT22;1510;51.072;6.678;2023-03-01T20:34:51;-0.50;99.90
3001;DHT22;1510;51.072;6.678;2023-03-01T20:37:20;-0.10;99.90
3001;DHT22;1510;51.072;6.678;2023-03-01T20:47:29;0.60;90.80
3001;DHT22;1510;51.072;6.678;2023-03-01T20:49:56;0.80;87.40
3001;DHT22;1510;51.072;6.678;2023-03-01T20:52:32;0.80;86.80
3001;DHT22;1510;51.072;6.678;2023-03-01T20:55:05;1.10;85.50
3001;DHT22;1510;51.072;6.678;2023-03-01T21:10:55;1.00;85.50
3001;DHT22;1510;51.072;6.678;2023-03-01T21:13:22;0.90;85.40
3001;DHT22;1510;51.072;6.678;2023-03-01T22:31:01;0.20;94.70
